Terminal Aerodrome Forecast
Issued by NWS Blacksburg, VA

Current Version | Previous Version | Text Only | Print | Product List | Glossary Off
Versions: 1 2 3 4 5 6 7 8 9 10 11 12 13 14 15 16 17 18 19 20 21 22 23 24 25 26 27 28 29 30 31 32 33 34 35 36 37 38 39 40 41 42 43 44 45 46 47

497
FTUS41 KRNK 221726
TAFBLF
TAF
KBLF 221726Z 2218/2318 30007G17KT 3SM -RA BR VCTS OVC003CB
      TEMPO 2218/2220 1SM +TSRA OVC012CB
     FM222000 32007KT 2SM TSRA OVC015CB
     FM222200 35005KT 3SM SHRA OVC010
     FM230000 03004KT P6SM OVC015
     FM230200 06004KT 3SM -RA BR OVC008
     FM231400 10008KT 1SM +SHRA OVC003=

USA.gov is the U.S. government's official web portal to all federal, state and local government web resources and services.